createdAt,value
2023-04-01T00:01:21.525Z,-11.70
2023-04-01T00:03:50.769Z,-11.58
2023-04-01T00:06:20.592Z,-11.42
2023-04-01T00:08:49.695Z,-11.25
2023-04-01T00:11:20.552Z,-11.02
2023-04-01T00:13:49.959Z,-10.78
2023-04-01T00:16:22.061Z,-10.50
2023-04-01T00:18:52.774Z,-10.24
2023-04-01T00:21:23.324Z,-9.99
2023-04-01T00:23:53.258Z,-9.78
2023-04-01T00:26:23.320Z,-9.54
2023-04-01T00:28:52.562Z,-9.32
2023-04-01T00:31:22.133Z,-9.08
2023-04-01T00:33:51.149Z,-8.78
2023-04-01T00:36:23.095Z,-8.46
2023-04-01T00:38:52.045Z,-8.17
2023-04-01T00:41:22.770Z,-7.85
2023-04-01T00:43:53.169Z,-7.51
2023-04-01T00:46:22.069Z,-7.23
2023-04-01T00:48:57.922Z,-6.91
2023-04-01T00:51:31.163Z,-6.70
2023-04-01T00:54:03.252Z,-6.50
2023-04-01T00:56:57.306Z,-6.24
2023-04-01T00:59:31.426Z,-6.01
2023-04-01T01:02:02.936Z,-5.71
2023-04-01T01:04:35.384Z,-5.14
2023-04-01T01:07:16.354Z,-4.18
2023-04-01T01:09:57.431Z,-3.04
2023-04-01T01:12:41.756Z,-1.73
2023-04-01T01:15:19.369Z,-0.68
2023-04-01T01:17:57.375Z,0.05
2023-04-01T01:20:50.443Z,0.55
2023-04-01T01:24:00.501Z,1.27
2023-04-01T01:26:42.114Z,2.05
2023-04-01T01:29:54.086Z,2.47
2023-04-01T01:32:47.523Z,2.58
2023-04-01T01:35:26.067Z,2.68
2023-04-01T01:38:05.615Z,3.03
2023-04-01T01:40:38.516Z,3.45
2023-04-01T01:43:13.264Z,4.07
2023-04-01T01:45:46.580Z,4.69
2023-04-01T01:48:29.356Z,4.97
2023-04-01T01:50:59.168Z,4.48
2023-04-01T01:53:28.541Z,3.84
2023-04-01T01:55:57.673Z,3.75
2023-04-01T01:58:44.376Z,3.65
2023-04-01T02:01:22.585Z,1.86
2023-04-01T02:03:53.838Z,1.46
2023-04-01T02:06:25.638Z,2.23
2023-04-01T02:09:14.922Z,3.15
2023-04-01T02:11:51.404Z,3.83
2023-04-01T02:14:27.710Z,4.65
2023-04-01T02:17:24.786Z,5.32
2023-04-01T02:20:13.398Z,5.84
2023-04-01T02:22:52.978Z,6.39
2023-04-01T02:25:29.834Z,6.83
2023-04-01T02:28:01.680Z,6.18
2023-04-01T02:30:33.732Z,4.23
2023-04-01T02:33:04.111Z,2.59
2023-04-01T02:35:38.895Z,1.48
2023-04-01T02:38:09.721Z,0.55
2023-04-01T02:40:51.624Z,-0.03
2023-04-01T02:43:21.426Z,-0.63
2023-04-01T02:45:50.228Z,-1.25
2023-04-01T02:48:20.383Z,-1.59
2023-04-01T02:50:50.592Z,-1.11
2023-04-01T02:53:19.641Z,-0.25
2023-04-01T02:55:51.458Z,0.49
2023-04-01T02:58:21.058Z,-0.08
2023-04-01T03:00:50.568Z,0.70
2023-04-01T03:03:19.726Z,2.71
2023-04-01T03:05:50.546Z,3.52
2023-04-01T03:08:21.229Z,3.17
2023-04-01T03:10:50.303Z,2.23
2023-04-01T03:13:19.105Z,1.04
2023-04-01T03:15:47.872Z,-0.13
2023-04-01T03:18:17.079Z,-0.70
2023-04-01T03:20:46.768Z,-0.51
2023-04-01T03:23:18.043Z,0.28
2023-04-01T03:25:47.450Z,2.91
2023-04-01T03:28:17.125Z,5.00
2023-04-01T03:30:46.754Z,5.55
2023-04-01T03:33:15.845Z,5.99
2023-04-01T03:35:44.744Z,5.99
2023-04-01T03:38:13.504Z,5.09
2023-04-01T03:40:44.923Z,3.92
2023-04-01T03:43:14.283Z,4.84
2023-04-01T03:45:48.061Z,4.99
2023-04-01T03:48:17.764Z,4.34
2023-04-01T03:50:46.914Z,3.87
2023-04-01T03:53:17.018Z,4.22
2023-04-01T03:55:48.479Z,4.45
2023-04-01T03:58:18.204Z,4.48
2023-04-01T04:00:48.208Z,5.23
2023-04-01T04:03:17.610Z,5.66
2023-04-01T04:05:51.131Z,7.36
2023-04-01T04:08:23.044Z,8.02
2023-04-01T04:10:58.950Z,9.24
2023-04-01T04:13:27.923Z,10.88
2023-04-01T04:16:02.623Z,9.80
2023-04-01T04:18:32.160Z,8.38
2023-04-01T04:21:01.076Z,6.22
2023-04-01T04:23:31.377Z,4.46
2023-04-01T04:26:08.522Z,3.28
2023-04-01T04:28:37.099Z,3.77
2023-04-01T04:31:09.564Z,4.93
2023-04-01T04:33:39.228Z,5.69
2023-04-01T04:36:08.687Z,5.88
2023-04-01T04:38:37.613Z,6.14
2023-04-01T04:41:19.409Z,5.04
2023-04-01T04:43:54.477Z,3.80
2023-04-01T04:46:24.938Z,4.89
2023-04-01T04:48:59.896Z,5.01
2023-04-01T04:51:28.893Z,4.51
2023-04-01T04:53:58.375Z,5.19
2023-04-01T04:56:40.180Z,5.74
2023-04-01T04:59:11.111Z,5.18
2023-04-01T05:01:48.984Z,4.33
2023-04-01T05:04:18.277Z,3.45
2023-04-01T05:06:47.318Z,2.78
2023-04-01T05:09:17.161Z,3.29
2023-04-01T05:11:47.024Z,5.69
2023-04-01T05:14:17.421Z,8.26
2023-04-01T05:16:55.964Z,10.85
2023-04-01T05:19:24.958Z,13.03
2023-04-01T05:21:54.591Z,14.87
2023-04-01T05:24:23.889Z,15.58
2023-04-01T05:26:54.688Z,15.15
2023-04-01T05:29:26.408Z,15.28
2023-04-01T05:32:02.310Z,12.89
2023-04-01T05:34:31.207Z,11.42
2023-04-01T05:37:00.545Z,12.13
2023-04-01T05:39:30.030Z,12.91
2023-04-01T05:41:59.500Z,12.04
2023-04-01T05:44:29.170Z,10.37
2023-04-01T05:47:21.329Z,8.19
2023-04-01T05:49:50.644Z,6.79
2023-04-01T05:52:19.846Z,5.58
2023-04-01T05:54:48.947Z,4.74
2023-04-01T05:57:17.924Z,5.08
2023-04-01T05:59:47.548Z,7.58
2023-04-01T06:02:20.395Z,10.61
2023-04-01T06:04:52.200Z,12.22
2023-04-01T06:07:21.463Z,11.81
2023-04-01T06:09:50.375Z,10.32
2023-04-01T06:12:28.631Z,10.63
2023-04-01T06:15:32.980Z,10.02
2023-04-01T06:18:27.627Z,8.42
2023-04-01T06:21:05.366Z,6.57
2023-04-01T06:23:48.570Z,5.23
2023-04-01T06:26:45.785Z,8.39
2023-04-01T06:29:46.638Z,9.92
2023-04-01T06:32:53.164Z,8.19
2023-04-01T06:35:39.803Z,6.73
2023-04-01T06:38:38.449Z,6.33
2023-04-01T06:41:35.543Z,5.38
2023-04-01T06:44:18.936Z,3.84
2023-04-01T06:47:31.197Z,2.70
2023-04-01T06:50:36.786Z,1.81
2023-04-01T06:53:44.669Z,3.10
2023-04-01T06:56:33.968Z,6.52
2023-04-01T06:59:17.526Z,9.22
2023-04-01T07:02:13.477Z,11.75
2023-04-01T07:04:48.562Z,13.08
2023-04-01T07:07:43.495Z,12.69
2023-04-01T07:10:39.078Z,9.80
2023-04-01T07:14:02.146Z,6.46
2023-04-01T07:16:42.360Z,5.02
2023-04-01T07:19:30.823Z,3.66
2023-04-01T07:22:33.819Z,2.62
2023-04-01T07:25:17.921Z,2.39
2023-04-01T07:27:59.379Z,2.32
2023-04-01T07:30:36.019Z,2.02
2023-04-01T07:33:14.751Z,1.45
2023-04-01T07:36:01.730Z,1.10
2023-04-01T07:39:08.045Z,2.40
2023-04-01T07:42:18.115Z,6.55
2023-04-01T07:44:54.092Z,9.41
2023-04-01T07:47:39.683Z,11.52
2023-04-01T07:51:04.357Z,12.84
2023-04-01T07:53:42.993Z,12.59
2023-04-01T07:56:41.023Z,11.79
2023-04-01T07:59:56.514Z,12.50
2023-04-01T08:02:47.573Z,13.34
2023-04-01T08:05:49.031Z,14.63
2023-04-01T08:08:43.674Z,14.93
2023-04-01T08:12:07.179Z,12.05
2023-04-01T08:15:04.674Z,10.48
2023-04-01T08:17:57.750Z,10.17
2023-04-01T08:20:44.026Z,11.04
2023-04-01T08:23:17.960Z,11.70
2023-04-01T08:25:58.936Z,10.97
2023-04-01T08:28:57.026Z,10.14
2023-04-01T08:31:52.235Z,9.78
2023-04-01T08:34:28.665Z,8.59
2023-04-01T08:37:16.386Z,6.10
2023-04-01T08:39:52.297Z,4.07
2023-04-01T08:42:43.853Z,2.73
2023-04-01T08:45:28.468Z,1.88
2023-04-01T08:48:43.031Z,1.17
2023-04-01T08:51:58.090Z,0.50
2023-04-01T08:54:47.275Z,-0.12
2023-04-01T08:57:42.767Z,-0.77
2023-04-01T09:00:56.391Z,-0.96
2023-04-01T09:04:09.187Z,-1.03
2023-04-01T09:06:41.277Z,-1.10
2023-04-01T09:09:31.974Z,-1.10
2023-04-01T09:12:29.507Z,-1.07
2023-04-01T09:15:44.371Z,-1.28
2023-04-01T09:19:02.957Z,-1.57
2023-04-01T09:21:45.037Z,-1.85
2023-04-01T09:24:17.257Z,-2.05
2023-04-01T09:26:58.501Z,-2.32
2023-04-01T09:30:05.022Z,-2.63
2023-04-01T09:33:08.244Z,-2.86
2023-04-01T09:36:19.541Z,-3.01
2023-04-01T09:39:12.545Z,-3.16
2023-04-01T09:41:47.744Z,-3.21
2023-04-01T09:44:51.030Z,-3.31
2023-04-01T09:47:44.624Z,-3.35
2023-04-01T09:50:42.211Z,-3.33
2023-04-01T09:53:44.820Z,-3.16
2023-04-01T09:57:03.522Z,-3.06
2023-04-01T09:59:41.340Z,-3.21
2023-04-01T10:03:03.427Z,-3.36
2023-04-01T10:05:57.703Z,-3.63
2023-04-01T10:08:42.127Z,-3.78
2023-04-01T10:11:51.713Z,-4.08
2023-04-01T10:14:53.298Z,-4.48
2023-04-01T10:17:59.624Z,-4.80
2023-04-01T10:21:02.326Z,-5.03
2023-04-01T10:23:54.899Z,-5.22
2023-04-01T10:26:45.176Z,-5.20
2023-04-01T10:29:58.635Z,-5.21
2023-04-01T10:32:58.791Z,-5.38
2023-04-01T10:35:31.784Z,-5.60
2023-04-01T10:38:20.972Z,-5.72
2023-04-01T10:41:11.133Z,-5.87
2023-04-01T10:44:32.863Z,-5.99
2023-04-01T10:47:44.265Z,-6.06
2023-04-01T10:50:50.854Z,-6.08
2023-04-01T10:53:32.542Z,-6.25
2023-04-01T10:56:40.305Z,-6.44
2023-04-01T10:59:33.622Z,-6.59
2023-04-01T11:02:46.064Z,-6.77
2023-04-01T11:06:00.755Z,-6.95
2023-04-01T11:09:15.911Z,-7.02
2023-04-01T11:12:03.220Z,-7.06
2023-04-01T11:15:00.914Z,-7.14
2023-04-01T11:18:13.958Z,-7.20
2023-04-01T11:20:59.465Z,-7.25
2023-04-01T11:23:45.525Z,-7.34
2023-04-01T11:26:22.127Z,-7.45
2023-04-01T11:29:49.796Z,-7.60
2023-04-01T11:33:03.016Z,-7.80
2023-04-01T11:35:44.370Z,-7.90
2023-04-01T11:38:40.405Z,-7.99
2023-04-01T11:42:15.181Z,-8.13
2023-04-01T11:45:34.927Z,-8.26
2023-04-01T11:48:25.971Z,-8.33
2023-04-01T11:51:47.691Z,-8.42
2023-04-01T11:54:51.295Z,-8.51
2023-04-01T12:01:00.357Z,-8.65
2023-04-01T12:03:49.848Z,-8.71
2023-04-01T12:06:18.634Z,-8.75
2023-04-01T12:08:59.299Z,-8.87
2023-04-01T12:11:46.149Z,-8.89
2023-04-01T12:14:52.725Z,-8.92
2023-04-01T12:17:37.016Z,-8.93
2023-04-01T12:20:14.690Z,-8.96
2023-04-01T12:22:55.323Z,-9.03
2023-04-01T12:26:07.224Z,-9.06
2023-04-01T12:28:45.599Z,-9.16
2023-04-01T12:31:38.906Z,-9.24
2023-04-01T12:34:35.139Z,-9.26
2023-04-01T12:37:22.404Z,-9.35
2023-04-01T12:40:10.669Z,-9.41
2023-04-01T12:42:45.322Z,-9.44
2023-04-01T12:45:41.632Z,-9.56
2023-04-01T12:48:23.855Z,-9.55
2023-04-01T12:51:18.345Z,-9.61
2023-04-01T12:54:55.667Z,-9.66
2023-04-01T12:57:44.618Z,-9.75
2023-04-01T13:00:32.533Z,-9.82
2023-04-01T13:03:27.324Z,-9.86
2023-04-01T13:06:22.265Z,-9.89
2023-04-01T13:09:05.953Z,-9.92
2023-04-01T13:12:02.692Z,-9.94
2023-04-01T13:14:58.781Z,-9.94
2023-04-01T13:17:37.190Z,-10.03
2023-04-01T13:20:45.499Z,-9.98
2023-04-01T13:23:32.763Z,-10.02
2023-04-01T13:26:14.248Z,-10.06
2023-04-01T13:28:55.342Z,-10.14
2023-04-01T13:32:02.564Z,-10.15
2023-04-01T13:34:46.426Z,-10.22
2023-04-01T13:37:15.247Z,-10.26
2023-04-01T13:39:58.171Z,-10.33
2023-04-01T13:42:42.084Z,-10.41
2023-04-01T13:45:17.412Z,-10.50
2023-04-01T13:48:20.986Z,-10.56
2023-04-01T13:51:05.986Z,-10.60
2023-04-01T13:54:06.898Z,-10.54
2023-04-01T13:57:15.977Z,-10.57
2023-04-01T14:00:23.974Z,-10.57
2023-04-01T14:03:14.520Z,-10.57
2023-04-01T14:06:05.432Z,-10.54
2023-04-01T14:09:02.257Z,-10.56
2023-04-01T14:11:41.372Z,-10.62
2023-04-01T14:14:30.918Z,-10.67
2023-04-01T14:17:09.863Z,-10.73
2023-04-01T14:19:42.513Z,-10.78
2023-04-01T14:22:47.892Z,-10.78
2023-04-01T14:26:15.493Z,-10.80
2023-04-01T14:29:09.089Z,-10.87
2023-04-01T14:32:15.272Z,-10.89
2023-04-01T14:35:15.680Z,-10.92
2023-04-01T14:38:10.905Z,-10.88
2023-04-01T14:41:25.034Z,-10.92
2023-04-01T14:44:35.181Z,-10.92
2023-04-01T14:47:18.312Z,-10.97
2023-04-01T14:50:05.240Z,-11.05
2023-04-01T14:52:40.540Z,-11.10
2023-04-01T14:55:45.245Z,-11.10
2023-04-01T14:58:19.010Z,-11.09
2023-04-01T15:01:02.583Z,-11.11
2023-04-01T15:03:39.457Z,-11.12
2023-04-01T15:06:43.001Z,-11.10
2023-04-01T15:09:31.595Z,-11.10
2023-04-01T15:12:19.034Z,-11.10
2023-04-01T15:15:00.456Z,-11.10
2023-04-01T15:17:49.829Z,-11.13
2023-04-01T15:20:36.315Z,-11.14
2023-04-01T15:23:29.539Z,-11.20
2023-04-01T15:26:23.383Z,-11.28
2023-04-01T15:29:25.675Z,-11.35
2023-04-01T15:32:09.750Z,-11.35
2023-04-01T15:35:02.430Z,-11.34
2023-04-01T15:37:54.113Z,-11.38
2023-04-01T15:40:32.851Z,-11.37
2023-04-01T15:43:29.052Z,-11.32
2023-04-01T15:46:16.447Z,-11.33
2023-04-01T15:49:03.834Z,-11.40
2023-04-01T15:51:38.542Z,-11.43
2023-04-01T15:54:22.589Z,-11.48
2023-04-01T15:57:18.773Z,-11.47
2023-04-01T16:00:13.536Z,-11.48
2023-04-01T16:03:11.354Z,-11.54
2023-04-01T16:06:06.784Z,-11.56
2023-04-01T16:09:01.723Z,-11.58
2023-04-01T16:11:45.889Z,-11.57
2023-04-01T16:14:46.829Z,-11.58
2023-04-01T16:17:25.305Z,-11.66
2023-04-01T16:20:28.434Z,-11.69
2023-04-01T16:23:20.437Z,-11.70
2023-04-01T16:26:08.394Z,-11.67
2023-04-01T16:28:56.829Z,-11.70
2023-04-01T16:31:39.084Z,-11.68
2023-04-01T16:34:36.535Z,-11.65
2023-04-01T16:37:14.646Z,-11.69
2023-04-01T16:40:08.584Z,-11.65
2023-04-01T16:42:53.973Z,-11.69
2023-04-01T16:45:49.643Z,-11.64
2023-04-01T16:48:38.362Z,-11.64
2023-04-01T16:51:17.678Z,-11.66
2023-04-01T16:53:55.779Z,-11.62
2023-04-01T16:56:38.197Z,-11.66
2023-04-01T16:59:30.288Z,-11.64
2023-04-01T17:02:05.098Z,-11.62
2023-04-01T17:04:48.739Z,-11.61
2023-04-01T17:07:23.898Z,-11.59
2023-04-01T17:10:11.288Z,-11.53
2023-04-01T17:12:54.910Z,-11.48
2023-04-01T17:15:42.744Z,-11.48
2023-04-01T17:18:27.227Z,-11.49
2023-04-01T17:21:26.281Z,-11.52
2023-04-01T17:24:06.966Z,-11.57
2023-04-01T17:26:52.074Z,-11.65
2023-04-01T17:29:26.857Z,-11.60
2023-04-01T17:32:18.992Z,-11.59
2023-04-01T17:35:08.383Z,-11.64
2023-04-01T17:37:42.845Z,-11.66
2023-04-01T17:40:35.488Z,-11.69
2023-04-01T17:43:42.076Z,-11.70
2023-04-01T17:46:37.769Z,-11.75
2023-04-01T17:49:24.804Z,-11.75
2023-04-01T17:52:30.790Z,-11.73
2023-04-01T17:55:18.535Z,-11.70
2023-04-01T17:58:24.157Z,-11.75
2023-04-01T18:01:04.997Z,-11.78
2023-04-01T18:03:52.537Z,-11.76
2023-04-01T18:06:48.745Z,-11.76
2023-04-01T18:09:20.482Z,-11.74
2023-04-01T18:11:56.464Z,-11.75
2023-04-01T18:14:55.999Z,-11.79
2023-04-01T18:17:52.229Z,-11.85
2023-04-01T18:20:44.423Z,-11.94
2023-04-01T18:23:37.071Z,-12.01
2023-04-01T18:26:16.218Z,-12.11
2023-04-01T18:28:58.007Z,-12.20
2023-04-01T18:31:34.623Z,-12.19
2023-04-01T18:34:21.903Z,-12.16
2023-04-01T18:37:18.730Z,-12.14
2023-04-01T18:40:29.126Z,-12.12
2023-04-01T18:43:45.386Z,-12.13
2023-04-01T18:46:21.434Z,-12.15
2023-04-01T18:49:26.802Z,-12.14
2023-04-01T18:51:57.568Z,-12.18
2023-04-01T18:54:42.314Z,-12.21
2023-04-01T18:57:16.197Z,-12.30
2023-04-01T18:59:53.182Z,-12.42
2023-04-01T19:02:31.061Z,-12.52
2023-04-01T19:05:03.159Z,-12.67
2023-04-01T19:07:37.962Z,-12.84
2023-04-01T19:10:27.976Z,-12.97
2023-04-01T19:13:09.476Z,-13.06
2023-04-01T19:16:03.289Z,-13.10
2023-04-01T19:18:55.685Z,-13.07
2023-04-01T19:21:34.757Z,-13.06
2023-04-01T19:24:38.328Z,-13.01
2023-04-01T19:27:29.553Z,-13.06
2023-04-01T19:30:23.811Z,-13.16
2023-04-01T19:33:06.235Z,-13.03
2023-04-01T19:36:16.757Z,-13.00
2023-04-01T19:38:58.933Z,-13.00
2023-04-01T19:41:54.542Z,-13.04
2023-04-01T19:44:32.141Z,-12.98
2023-04-01T19:47:34.428Z,-13.10
2023-04-01T19:50:31.004Z,-13.04
2023-04-01T19:53:10.300Z,-13.04
2023-04-01T19:55:51.234Z,-13.10
2023-04-01T19:58:33.156Z,-13.14
2023-04-01T20:01:06.550Z,-13.18
2023-04-01T20:03:50.506Z,-13.20
2023-04-01T20:06:25.361Z,-13.26
2023-04-01T20:09:15.194Z,-13.27
2023-04-01T20:11:52.624Z,-13.27
2023-04-01T20:14:58.327Z,-13.33
2023-04-01T20:17:32.200Z,-13.43
2023-04-01T20:20:10.089Z,-13.47
2023-04-01T20:22:47.766Z,-13.48
2023-04-01T20:25:28.689Z,-13.50
2023-04-01T20:27:57.357Z,-13.48
2023-04-01T20:30:37.350Z,-13.44
2023-04-01T20:33:41.665Z,-13.43
2023-04-01T20:36:37.715Z,-13.51
2023-04-01T20:39:35.692Z,-13.52
2023-04-01T20:42:56.073Z,-13.51
2023-04-01T20:45:46.733Z,-13.56
2023-04-01T20:48:43.245Z,-13.60
2023-04-01T20:51:17.330Z,-13.60
2023-04-01T20:53:52.937Z,-13.65
2023-04-01T20:56:29.994Z,-13.66
2023-04-01T20:59:30.036Z,-13.63
2023-04-01T21:02:04.221Z,-13.62
2023-04-01T21:04:53.283Z,-13.61
2023-04-01T21:07:58.036Z,-13.61
2023-04-01T21:10:51.815Z,-13.63
2023-04-01T21:13:55.729Z,-13.69
2023-04-01T21:17:00.563Z,-13.73
2023-04-01T21:19:53.578Z,-13.78
2023-04-01T21:22:25.128Z,-13.80
2023-04-01T21:25:24.109Z,-13.87
2023-04-01T21:28:20.201Z,-13.89
2023-04-01T21:30:59.720Z,-14.01
2023-04-01T21:33:34.022Z,-14.03
2023-04-01T21:36:27.965Z,-14.05
2023-04-01T21:40:02.015Z,-14.05
2023-04-01T21:43:05.445Z,-14.13
2023-04-01T21:46:09.530Z,-14.10
2023-04-01T21:48:53.330Z,-14.05
2023-04-01T21:51:45.567Z,-14.13
2023-04-01T21:54:34.669Z,-14.20
2023-04-01T21:57:22.653Z,-14.20
2023-04-01T22:00:15.506Z,-14.23
2023-04-01T22:03:06.115Z,-14.29
2023-04-01T22:05:47.530Z,-14.35
2023-04-01T22:08:32.941Z,-14.40
2023-04-01T22:11:23.302Z,-14.45
2023-04-01T22:13:51.930Z,-14.50
2023-04-01T22:16:46.234Z,-14.52
2023-04-01T22:19:21.767Z,-14.54
2023-04-01T22:21:53.667Z,-14.54
2023-04-01T22:24:35.316Z,-14.56
2023-04-01T22:27:25.468Z,-14.59
2023-04-01T22:30:12.109Z,-14.60
2023-04-01T22:33:01.900Z,-14.70
2023-04-01T22:35:38.742Z,-14.73
2023-04-01T22:38:43.942Z,-14.75
2023-04-01T22:41:39.118Z,-14.71
2023-04-01T22:44:30.460Z,-14.64
2023-04-01T22:47:34.996Z,-14.59
2023-04-01T22:50:20.191Z,-14.60
2023-04-01T22:52:55.532Z,-14.63
2023-04-01T22:55:29.892Z,-14.63
2023-04-01T22:58:13.259Z,-14.57
2023-04-01T23:00:52.256Z,-14.58
2023-04-01T23:03:46.856Z,-14.44
2023-04-01T23:06:31.590Z,-14.41
2023-04-01T23:09:38.520Z,-14.37
2023-04-01T23:12:13.137Z,-14.25
2023-04-01T23:14:53.942Z,-14.22
2023-04-01T23:17:59.890Z,-14.23
2023-04-01T23:20:33.895Z,-14.19
2023-04-01T23:23:18.061Z,-14.15
2023-04-01T23:25:58.232Z,-14.06
2023-04-01T23:28:52.295Z,-13.99
2023-04-01T23:31:37.048Z,-13.97
2023-04-01T23:34:32.742Z,-13.93
2023-04-01T23:37:06.926Z,-13.87
2023-04-01T23:39:42.479Z,-13.82
2023-04-01T23:42:24.477Z,-13.63
2023-04-01T23:45:03.498Z,-13.50
2023-04-01T23:47:39.705Z,-13.35
2023-04-01T23:50:26.382Z,-13.24
2023-04-01T23:53:14.665Z,-13.16
2023-04-01T23:55:44.219Z,-13.05
2023-04-01T23:58:27.930Z,-12.95
